createdAt,value
2019-04-22T00:00:47.389Z,7.00
2019-04-22T00:03:19.903Z,5.93
2019-04-22T00:06:14.595Z,6.77
2019-04-22T00:08:43.276Z,7.53
2019-04-22T00:11:23.577Z,7.47
2019-04-22T00:13:52.067Z,7.30
2019-04-22T00:16:27.570Z,6.80
2019-04-22T00:21:26.278Z,6.70
2019-04-22T00:23:51.968Z,7.00
2019-04-22T00:26:29.029Z,6.63
2019-04-22T00:29:05.141Z,6.27
2019-04-22T00:31:34.701Z,6.50
2019-04-22T00:34:06.720Z,6.50
2019-04-22T00:36:40.185Z,6.40
2019-04-22T00:39:15.069Z,6.50
2019-04-22T00:41:45.173Z,6.70
2019-04-22T00:44:21.972Z,6.33
2019-04-22T00:46:47.473Z,6.50
2019-04-22T00:49:59.919Z,6.50
2019-04-22T00:51:52.704Z,6.27
2019-04-22T00:54:24.705Z,6.07
2019-04-22T00:56:48.090Z,6.80
2019-04-22T00:59:23.321Z,6.43
2019-04-22T01:01:52.607Z,6.03
2019-04-22T01:06:58.652Z,6.50
2019-04-22T01:09:36.934Z,6.70
2019-04-22T01:12:07.236Z,6.70
2019-04-22T01:14:37.241Z,6.50
2019-04-22T01:17:06.598Z,6.57
2019-04-22T01:19:45.195Z,6.73
2019-04-22T01:22:13.151Z,5.90
2019-04-22T01:24:40.274Z,5.80
2019-04-22T01:27:08.087Z,5.90
2019-04-22T01:29:39.854Z,6.70
2019-04-22T01:31:56.458Z,6.90
2019-04-22T01:34:45.661Z,5.70
2019-04-22T01:37:19.955Z,6.97
2019-04-22T01:39:59.082Z,6.73
2019-04-22T01:42:32.854Z,6.67
2019-04-22T01:44:59.625Z,6.10
2019-04-22T01:50:10.158Z,5.97
2019-04-22T01:52:39.887Z,6.00
2019-04-22T01:55:12.366Z,6.70
2019-04-22T01:57:39.381Z,6.67
2019-04-22T02:00:00.949Z,6.10
2019-04-22T02:02:42.359Z,5.77
2019-04-22T02:07:42.492Z,5.60
2019-04-22T02:10:20.173Z,5.70
2019-04-22T02:12:47.059Z,6.00
2019-04-22T02:15:16.750Z,5.87
2019-04-22T02:17:58.840Z,5.93
2019-04-22T02:20:25.310Z,5.87
2019-04-22T02:25:56.434Z,5.73
2019-04-22T02:28:33.760Z,6.17
2019-04-22T02:31:27.013Z,6.17
2019-04-22T02:36:20.231Z,5.70
2019-04-22T02:43:51.927Z,6.60
2019-04-22T02:51:17.221Z,6.03
2019-04-22T02:54:17.393Z,5.80
2019-04-22T02:56:27.496Z,6.00
2019-04-22T03:01:31.333Z,5.70
2019-04-22T03:04:00.881Z,5.83
2019-04-22T03:06:30.382Z,6.23
2019-04-22T03:09:01.542Z,6.20
2019-04-22T03:11:34.308Z,6.07
2019-04-22T03:16:31.987Z,5.80
2019-04-22T03:19:18.059Z,6.30
2019-04-22T03:21:38.784Z,5.63
2019-04-22T03:37:21.355Z,6.50
2019-04-22T03:42:06.799Z,6.47
2019-04-22T03:44:38.418Z,6.47
2019-04-22T03:49:49.989Z,7.00
2019-04-22T03:54:53.876Z,6.03
2019-04-22T03:59:54.891Z,6.20
2019-04-22T04:10:01.495Z,6.00
2019-04-22T04:12:28.444Z,6.57
2019-04-22T04:17:45.878Z,6.40
2019-04-22T04:22:53.205Z,6.20
2019-04-22T04:25:40.911Z,6.67
2019-04-22T04:45:40.823Z,6.60
2019-04-22T04:47:57.993Z,5.77
2019-04-22T04:50:26.195Z,6.30
2019-04-22T04:58:25.188Z,6.70
2019-04-22T05:05:31.724Z,6.70
2019-04-22T05:08:01.079Z,6.13
2019-04-22T05:10:53.494Z,6.87
2019-04-22T05:13:12.372Z,6.67
2019-04-22T05:15:53.400Z,6.17
2019-04-22T05:20:53.225Z,6.03
2019-04-22T05:23:21.911Z,6.00
2019-04-22T05:25:40.367Z,6.40
2019-04-22T05:28:19.885Z,6.60
2019-04-22T05:30:49.888Z,5.93
2019-04-22T05:33:26.304Z,6.03
2019-04-22T05:35:58.380Z,5.57
2019-04-22T05:38:27.167Z,6.73
2019-04-22T05:40:51.942Z,6.20
2019-04-22T05:43:31.002Z,6.43
2019-04-22T05:46:00.656Z,5.77
2019-04-22T05:48:33.109Z,5.57
2019-04-22T05:51:07.796Z,5.50
2019-04-22T05:53:35.665Z,5.40
2019-04-22T05:56:06.984Z,5.73
2019-04-22T05:58:38.094Z,5.27
2019-04-22T06:03:48.853Z,5.07
2019-04-22T06:06:16.785Z,4.70
2019-04-22T06:08:48.811Z,5.53
2019-04-22T06:11:22.812Z,5.13
2019-04-22T06:13:46.537Z,5.20
2019-04-22T06:16:29.115Z,4.70
2019-04-22T06:19:00.970Z,4.63
2019-04-22T06:21:41.760Z,5.07
2019-04-22T06:24:04.807Z,4.87
2019-04-22T06:26:45.765Z,4.60
2019-04-22T06:29:13.747Z,4.53
2019-04-22T06:31:49.670Z,4.60
2019-04-22T06:34:13.410Z,4.67
2019-04-22T06:36:47.611Z,4.77
2019-04-22T06:39:14.689Z,4.70
2019-04-22T06:44:18.722Z,5.33
2019-04-22T06:46:47.460Z,5.13
2019-04-22T06:49:28.614Z,4.87
2019-04-22T06:51:55.703Z,4.90
2019-04-22T06:54:27.910Z,5.00
2019-04-22T06:56:55.918Z,5.50
2019-04-22T06:59:42.676Z,5.23
2019-04-22T07:02:04.816Z,5.50
2019-04-22T07:04:30.338Z,4.73
2019-04-22T07:12:10.030Z,5.63
2019-04-22T07:14:35.309Z,5.43
2019-04-22T07:17:10.212Z,5.07
2019-04-22T07:19:40.349Z,4.53
2019-04-22T07:27:14.319Z,4.67
2019-04-22T07:29:46.701Z,5.37
2019-04-22T07:32:29.380Z,5.47
2019-04-22T07:34:54.003Z,5.53
2019-04-22T07:37:31.672Z,5.07
2019-04-22T07:39:50.209Z,5.60
2019-04-22T07:42:30.029Z,5.70
2019-04-22T07:44:56.231Z,5.17
2019-04-22T07:47:34.116Z,6.23
2019-04-22T07:50:03.604Z,5.50
2019-04-22T07:55:12.210Z,6.03
2019-04-22T07:57:32.821Z,5.50
2019-04-22T08:00:09.050Z,6.17
2019-04-22T08:02:44.186Z,6.33
2019-04-22T08:05:26.365Z,6.60
2019-04-22T08:07:45.410Z,6.70
2019-04-22T08:12:45.675Z,6.70
2019-04-22T08:15:13.187Z,6.47
2019-04-22T08:17:59.242Z,6.43
2019-04-22T08:20:23.837Z,6.93
2019-04-22T08:22:57.378Z,5.93
2019-04-22T08:25:24.836Z,7.00
2019-04-22T08:27:57.058Z,7.27
2019-04-22T08:33:07.507Z,7.33
2019-04-22T08:38:06.410Z,7.80
2019-04-22T08:40:41.824Z,7.43
2019-04-22T08:43:42.113Z,7.37
2019-04-22T08:46:03.010Z,6.67
2019-04-22T08:48:29.386Z,6.13
2019-04-22T08:51:07.587Z,6.87
2019-04-22T08:53:39.834Z,7.00
2019-04-22T08:56:17.151Z,6.70
2019-04-22T08:58:44.549Z,7.30
2019-04-22T09:01:13.646Z,7.40
2019-04-22T09:03:50.422Z,7.13
2019-04-22T09:06:20.344Z,7.33
2019-04-22T09:08:50.069Z,7.37
2019-04-22T09:11:22.863Z,7.87
2019-04-22T09:13:49.840Z,7.43
2019-04-22T09:16:27.899Z,7.00
2019-04-22T09:18:53.974Z,7.37
2019-04-22T09:21:38.958Z,7.47
2019-04-22T09:24:00.773Z,6.80
2019-04-22T09:26:30.295Z,7.00
2019-04-22T09:31:31.816Z,7.67
2019-04-22T09:33:59.667Z,7.63
2019-04-22T09:36:34.001Z,8.07
2019-04-22T09:39:10.729Z,8.40
2019-04-22T09:41:44.798Z,7.73
2019-04-22T09:44:09.221Z,8.20
2019-04-22T09:46:44.033Z,7.53
2019-04-22T09:49:19.619Z,8.00
2019-04-22T09:51:44.928Z,8.03
2019-04-22T09:54:22.110Z,7.70
2019-04-22T09:56:49.340Z,7.93
2019-04-22T09:59:21.094Z,7.63
2019-04-22T10:02:08.458Z,7.20
2019-04-22T10:04:18.832Z,7.90
2019-04-22T10:06:53.117Z,7.50
2019-04-22T10:11:56.315Z,7.23
2019-04-22T10:14:30.863Z,7.37
2019-04-22T10:16:59.956Z,7.27
2019-04-22T10:19:39.386Z,6.40
2019-04-22T10:22:06.890Z,6.50
2019-04-22T10:24:31.912Z,7.10
2019-04-22T10:27:07.226Z,6.70
2019-04-22T10:29:51.472Z,6.13
2019-04-22T10:32:14.759Z,6.60
2019-04-22T10:34:29.153Z,6.73
2019-04-22T10:36:54.478Z,6.37
2019-04-22T10:39:35.685Z,6.90
2019-04-22T10:41:54.659Z,5.07
2019-04-22T10:44:24.609Z,5.97
2019-04-22T10:46:55.917Z,5.80
2019-04-22T10:49:26.570Z,5.27
2019-04-22T10:51:56.532Z,5.23
2019-04-22T10:54:27.378Z,4.77
2019-04-22T10:56:57.372Z,5.30
2019-04-22T10:59:28.749Z,4.83
2019-04-22T11:01:59.275Z,4.47
2019-04-22T11:04:30.198Z,4.80
2019-04-22T11:07:03.885Z,4.50
2019-04-22T11:09:32.988Z,3.97
2019-04-22T11:12:09.912Z,4.17
2019-04-22T11:14:34.930Z,4.20
2019-04-22T11:17:05.654Z,4.03
2019-04-22T11:19:37.344Z,3.70
2019-04-22T11:22:18.776Z,3.80
2019-04-22T11:24:41.571Z,3.57
2019-04-22T11:27:12.996Z,3.40
2019-04-22T11:29:45.662Z,3.80
2019-04-22T11:32:15.591Z,3.93
2019-04-22T11:34:47.003Z,3.60
2019-04-22T11:37:20.768Z,4.63
2019-04-22T11:40:02.095Z,3.63
2019-04-22T11:42:23.854Z,4.00
2019-04-22T11:44:55.131Z,3.80
2019-04-22T11:47:25.542Z,3.40
2019-04-22T11:49:55.548Z,3.53
2019-04-22T11:52:26.768Z,3.80
2019-04-22T11:54:57.121Z,3.90
2019-04-22T11:57:28.719Z,3.17
2019-04-22T11:59:58.916Z,4.10
2019-04-22T12:02:31.170Z,3.50
2019-04-22T12:05:01.887Z,3.20
2019-04-22T12:07:34.804Z,3.77
2019-04-22T12:10:17.813Z,4.23
2019-04-22T12:12:36.318Z,4.97
2019-04-22T12:15:08.502Z,6.27
2019-04-22T12:17:40.497Z,5.80
2019-04-22T12:20:14.538Z,6.73
2019-04-22T12:22:45.049Z,8.00
2019-04-22T12:25:30.017Z,7.57
2019-04-22T12:27:48.369Z,7.27
2019-04-22T12:30:19.602Z,8.87
2019-04-22T12:32:50.515Z,7.73
2019-04-22T12:35:20.759Z,8.23
2019-04-22T12:37:55.646Z,7.70
2019-04-22T12:40:35.463Z,7.87
2019-04-22T12:42:55.433Z,8.63
2019-04-22T12:45:26.671Z,9.43
2019-04-22T12:47:57.873Z,10.03
2019-04-22T12:50:33.158Z,10.00
2019-04-22T12:53:06.536Z,9.17
2019-04-22T12:55:32.378Z,9.63
2019-04-22T12:58:02.932Z,9.83
2019-04-22T13:00:34.212Z,10.20
2019-04-22T13:03:05.228Z,9.47
2019-04-22T13:05:35.359Z,9.00
2019-04-22T13:08:05.690Z,9.83
2019-04-22T13:11:12.273Z,7.90
2019-04-22T13:13:42.874Z,8.43
2019-04-22T13:16:13.404Z,8.23
2019-04-22T13:18:50.248Z,7.87
2019-04-22T13:21:15.296Z,8.10
2019-04-22T13:23:50.839Z,8.47
2019-04-22T13:26:21.189Z,7.63
2019-04-22T13:28:51.499Z,6.93
2019-04-22T13:31:22.815Z,7.23
2019-04-22T13:33:55.191Z,7.03
2019-04-22T13:36:27.309Z,7.20
2019-04-22T13:38:55.873Z,7.17
2019-04-22T13:41:35.669Z,7.17
2019-04-22T13:43:58.094Z,6.57
2019-04-22T13:46:31.285Z,6.77
2019-04-22T13:49:37.795Z,6.70
2019-04-22T13:54:48.393Z,6.03
2019-04-22T13:56:51.915Z,6.17
2019-04-22T13:59:17.659Z,5.83
2019-04-22T14:01:40.891Z,6.40
2019-04-22T14:04:12.611Z,5.83
2019-04-22T14:06:42.866Z,5.97
2019-04-22T14:09:13.678Z,5.80
2019-04-22T14:11:50.750Z,5.33
2019-04-22T14:14:15.613Z,5.80
2019-04-22T14:16:46.922Z,5.90
2019-04-22T14:19:18.284Z,5.50
2019-04-22T14:21:49.521Z,5.40
2019-04-22T14:24:23.844Z,4.97
2019-04-22T14:27:06.997Z,5.00
2019-04-22T14:29:26.001Z,5.20
2019-04-22T14:32:05.509Z,4.80
2019-04-22T14:34:28.540Z,4.70
2019-04-22T14:36:59.423Z,4.40
2019-04-22T14:39:30.336Z,4.93
2019-04-22T14:42:19.597Z,5.00
2019-04-22T14:47:26.383Z,4.70
2019-04-22T14:49:59.764Z,4.90
2019-04-22T14:52:28.930Z,4.53
2019-04-22T14:54:51.927Z,4.40
2019-04-22T14:57:10.855Z,4.50
2019-04-22T14:59:41.956Z,4.73
2019-04-22T15:02:13.944Z,4.00
2019-04-22T15:04:43.980Z,3.83
2019-04-22T15:07:14.957Z,4.23
2019-04-22T15:09:46.233Z,4.00
2019-04-22T15:12:29.559Z,3.80
2019-04-22T15:14:47.966Z,4.13
2019-04-22T15:17:22.894Z,3.70
2019-04-22T15:20:01.498Z,3.80
2019-04-22T15:22:32.732Z,3.83
2019-04-22T15:25:03.022Z,3.97
2019-04-22T15:27:33.331Z,4.37
2019-04-22T15:30:03.600Z,4.20
2019-04-22T15:32:33.604Z,4.27
2019-04-22T15:35:04.996Z,4.13
2019-04-22T15:37:35.244Z,4.00
2019-04-22T15:40:08.883Z,4.10
2019-04-22T15:42:42.825Z,4.80
2019-04-22T15:45:12.610Z,4.60
2019-04-22T15:47:42.094Z,4.47
2019-04-22T15:50:12.294Z,5.50
2019-04-22T15:52:49.106Z,5.03
2019-04-22T15:55:14.628Z,4.20
2019-04-22T15:57:45.746Z,3.90
2019-04-22T16:00:29.373Z,4.70
2019-04-22T16:02:47.845Z,4.13
2019-04-22T16:05:20.357Z,4.90
2019-04-22T16:07:50.701Z,4.30
2019-04-22T16:10:22.006Z,4.80
2019-04-22T16:13:02.790Z,4.40
2019-04-22T16:15:24.716Z,5.00
2019-04-22T16:17:55.041Z,5.10
2019-04-22T16:20:26.000Z,4.87
2019-04-22T16:23:01.425Z,4.87
2019-04-22T16:25:42.938Z,4.37
2019-04-22T16:28:13.176Z,5.17
2019-04-22T16:30:43.624Z,5.00
2019-04-22T16:33:15.192Z,4.70
2019-04-22T16:35:46.662Z,4.80
2019-04-22T16:38:17.093Z,4.63
2019-04-22T16:40:48.458Z,4.53
2019-04-22T16:43:19.463Z,4.80
2019-04-22T16:45:49.662Z,4.70
2019-04-22T16:48:19.955Z,4.43
2019-04-22T16:50:51.181Z,4.83
2019-04-22T16:53:23.188Z,5.10
2019-04-22T16:55:53.160Z,4.60
2019-04-22T16:58:23.299Z,4.67
2019-04-22T17:00:54.713Z,4.50
2019-04-22T17:03:26.861Z,4.87
2019-04-22T17:06:07.858Z,4.50
2019-04-22T17:08:39.022Z,4.43
2019-04-22T17:11:09.761Z,4.83
2019-04-22T17:13:40.366Z,4.93
2019-04-22T17:16:11.930Z,4.70
2019-04-22T17:18:43.428Z,5.30
2019-04-22T17:21:14.694Z,4.73
2019-04-22T17:23:45.702Z,4.83
2019-04-22T17:26:16.696Z,4.37
2019-04-22T17:28:46.783Z,4.60
2019-04-22T17:31:16.609Z,4.67
2019-04-22T17:33:46.806Z,4.43
2019-04-22T17:36:18.262Z,5.00
2019-04-22T17:38:56.464Z,4.40
2019-04-22T17:41:30.224Z,4.20
2019-04-22T17:44:21.918Z,4.77
2019-04-22T17:46:40.205Z,4.37
2019-04-22T17:49:21.859Z,4.03
2019-04-22T17:52:12.474Z,4.80
2019-04-22T17:54:38.520Z,4.57
2019-04-22T17:57:09.972Z,4.40
2019-04-22T17:59:41.789Z,4.40
2019-04-22T18:02:13.369Z,4.70
2019-04-22T18:04:33.952Z,3.93
2019-04-22T18:07:24.779Z,4.60
2019-04-22T18:10:16.146Z,4.23
2019-04-22T18:12:33.514Z,4.57
2019-04-22T18:14:59.563Z,4.33
2019-04-22T18:17:30.480Z,5.07
2019-04-22T18:19:53.179Z,4.13
2019-04-22T18:22:21.785Z,4.03
2019-04-22T18:24:58.256Z,4.60
2019-04-22T18:27:45.707Z,4.40
2019-04-22T18:30:02.292Z,4.37
2019-04-22T18:32:30.152Z,4.53
2019-04-22T18:35:10.519Z,4.13
2019-04-22T18:37:42.457Z,5.00
2019-04-22T18:40:15.052Z,4.80
2019-04-22T18:42:53.819Z,4.60
2019-04-22T18:45:37.669Z,5.03
2019-04-22T18:47:45.409Z,5.30
2019-04-22T18:50:31.000Z,4.77
2019-04-22T18:52:53.072Z,4.27
2019-04-22T18:55:26.790Z,4.90
2019-04-22T18:58:02.255Z,4.73
2019-04-22T19:00:27.320Z,4.97
2019-04-22T19:03:06.374Z,5.03
2019-04-22T19:05:45.320Z,4.67
2019-04-22T19:08:28.720Z,4.80
2019-04-22T19:13:54.467Z,5.00
2019-04-22T19:16:12.773Z,5.60
2019-04-22T19:18:34.695Z,4.90
2019-04-22T19:21:04.233Z,5.97
2019-04-22T19:23:33.158Z,4.53
2019-04-22T19:26:04.071Z,5.45
2019-04-22T19:28:42.350Z,5.27
2019-04-22T19:31:13.778Z,4.53
2019-04-22T19:33:39.891Z,4.50
2019-04-22T19:36:14.962Z,4.83
2019-04-22T19:38:32.585Z,5.20
2019-04-22T19:41:19.939Z,4.60
2019-04-22T19:43:53.275Z,5.00
2019-04-22T19:46:19.406Z,5.10
2019-04-22T19:48:57.730Z,5.10
2019-04-22T19:51:33.549Z,5.30
2019-04-22T19:53:56.221Z,5.27
2019-04-22T19:56:21.147Z,5.62
2019-04-22T19:58:53.507Z,5.30
2019-04-22T20:01:26.984Z,5.20
2019-04-22T20:04:12.321Z,4.70
2019-04-22T20:06:44.057Z,4.70
2019-04-22T20:09:16.996Z,5.23
2019-04-22T20:11:44.912Z,5.33
2019-04-22T20:14:16.808Z,5.30
2019-04-22T20:16:43.949Z,5.33
2019-04-22T20:19:26.851Z,5.90
2019-04-22T20:25:05.439Z,6.37
2019-04-22T20:27:48.185Z,5.70
2019-04-22T20:30:26.616Z,5.40
2019-04-22T20:32:47.643Z,5.20
2019-04-22T20:35:30.811Z,6.03
2019-04-22T20:37:58.193Z,6.08
2019-04-22T20:40:31.351Z,5.73
2019-04-22T20:43:27.267Z,6.30
2019-04-22T20:45:34.868Z,5.50
2019-04-22T20:47:53.527Z,6.07
2019-04-22T20:50:36.461Z,5.53
2019-04-22T20:53:13.426Z,5.70
2019-04-22T20:55:40.557Z,6.17
2019-04-22T20:58:13.604Z,5.63
2019-04-22T21:00:36.278Z,6.03
2019-04-22T21:03:05.182Z,6.20
2019-04-22T21:05:37.988Z,6.37
2019-04-22T21:08:20.935Z,6.17
2019-04-22T21:10:42.568Z,6.30
2019-04-22T21:13:13.867Z,6.70
2019-04-22T21:15:57.797Z,5.77
2019-04-22T21:18:19.222Z,6.40
2019-04-22T21:20:57.286Z,6.63
2019-04-22T21:23:26.476Z,6.23
2019-04-22T21:26:02.426Z,6.77
2019-04-22T21:28:36.690Z,6.27
2019-04-22T21:31:05.857Z,6.77
2019-04-22T21:33:36.423Z,6.20
2019-04-22T21:36:16.891Z,6.33
2019-04-22T21:38:42.488Z,6.83
2019-04-22T21:41:09.954Z,6.57
2019-04-22T21:43:46.699Z,6.07
2019-04-22T21:46:30.939Z,7.00
2019-04-22T21:48:48.188Z,5.77
2019-04-22T21:51:19.279Z,6.77
2019-04-22T21:54:00.327Z,6.07
2019-04-22T21:56:34.606Z,6.40
2019-04-22T21:58:56.002Z,5.70
2019-04-22T22:01:44.703Z,6.23
2019-04-22T22:04:04.811Z,6.30
2019-04-22T22:06:33.311Z,6.43
2019-04-22T22:09:08.991Z,5.93
2019-04-22T22:11:39.692Z,6.53
2019-04-22T22:14:12.371Z,6.37
2019-04-22T22:16:37.477Z,6.40
2019-04-22T22:19:20.917Z,6.50
2019-04-22T22:21:51.278Z,6.03
2019-04-22T22:24:23.136Z,6.10
2019-04-22T22:26:53.878Z,6.40
2019-04-22T22:29:29.358Z,6.33
2019-04-22T22:31:56.096Z,6.07
2019-04-22T22:34:24.444Z,6.40
2019-04-22T22:36:50.189Z,6.23
2019-04-22T22:39:23.643Z,5.57
2019-04-22T22:41:42.392Z,6.07
2019-04-22T22:44:20.932Z,5.80
2019-04-22T22:47:05.003Z,5.77
2019-04-22T22:49:45.170Z,5.40
2019-04-22T22:52:32.515Z,6.17
2019-04-22T22:54:42.076Z,5.93
2019-04-22T22:57:25.849Z,5.33
2019-04-22T22:59:45.549Z,5.40
2019-04-22T23:02:12.648Z,5.33
2019-04-22T23:04:45.927Z,5.17
2019-04-22T23:07:22.661Z,5.80
2019-04-22T23:09:51.905Z,5.13
2019-04-22T23:12:34.982Z,5.80
2019-04-22T23:14:50.006Z,5.07
2019-04-22T23:17:10.114Z,5.17
2019-04-22T23:19:41.899Z,5.40
2019-04-22T23:22:20.376Z,4.67
2019-04-22T23:25:14.905Z,5.20
2019-04-22T23:27:44.604Z,5.67
2019-04-22T23:30:09.523Z,5.07
2019-04-22T23:32:42.684Z,4.93
2019-04-22T23:35:28.661Z,5.37
2019-04-22T23:37:58.518Z,5.37
2019-04-22T23:40:37.117Z,4.77
2019-04-22T23:43:07.068Z,4.80
2019-04-22T23:45:40.266Z,5.50
2019-04-22T23:48:03.283Z,5.63
2019-04-22T23:54:18.811Z,5.43
2019-04-22T23:56:35.079Z,5.47
2019-04-22T23:59:26.286Z,4.77
